createdAt,value
2023-05-05T00:01:58.040Z,0.88
2023-05-05T00:04:25.215Z,0.57
2023-05-05T00:06:52.284Z,0.77
2023-05-05T00:09:19.415Z,1.00
2023-05-05T00:11:46.514Z,0.60
2023-05-05T00:14:14.034Z,0.90
2023-05-05T00:16:40.991Z,0.90
2023-05-05T00:19:08.279Z,0.52
2023-05-05T00:21:37.047Z,1.00
2023-05-05T00:24:04.354Z,0.50
2023-05-05T00:26:31.764Z,0.50
2023-05-05T00:28:59.950Z,0.50
2023-05-05T00:31:27.061Z,0.60
2023-05-05T00:33:54.693Z,0.55
2023-05-05T00:36:21.978Z,0.60
2023-05-05T00:38:48.989Z,0.50
2023-05-05T00:41:16.204Z,0.60
2023-05-05T00:43:43.338Z,0.85
2023-05-05T00:46:23.299Z,0.68
2023-05-05T00:48:50.757Z,0.57
2023-05-05T00:51:17.858Z,0.63
2023-05-05T00:53:45.403Z,0.70
2023-05-05T00:56:17.213Z,0.70
2023-05-05T00:58:44.626Z,0.60
2023-05-05T01:01:12.024Z,0.77
2023-05-05T01:03:39.886Z,0.60
2023-05-05T01:06:18.317Z,0.57
2023-05-05T01:09:14.740Z,0.70
2023-05-05T01:11:46.899Z,0.80
2023-05-05T01:14:25.209Z,0.68
2023-05-05T01:17:00.459Z,0.80
2023-05-05T01:19:42.448Z,1.13
2023-05-05T01:22:11.135Z,0.60
2023-05-05T01:24:41.240Z,1.38
2023-05-05T01:27:39.903Z,0.60
2023-05-05T01:30:25.278Z,0.52
2023-05-05T01:32:55.508Z,0.63
2023-05-05T01:35:42.867Z,1.08
2023-05-05T01:38:19.695Z,0.63
2023-05-05T01:40:52.516Z,0.57
2023-05-05T01:43:20.391Z,1.00
2023-05-05T01:45:47.422Z,0.85
2023-05-05T01:48:16.725Z,0.60
2023-05-05T01:50:43.847Z,0.90
2023-05-05T01:53:10.927Z,0.82
2023-05-05T01:55:37.959Z,1.00
2023-05-05T01:58:05.220Z,0.70
2023-05-05T02:00:32.397Z,0.75
2023-05-05T02:02:59.954Z,0.80
2023-05-05T02:05:27.141Z,0.50
2023-05-05T02:07:57.261Z,0.65
2023-05-05T02:10:24.310Z,0.60
2023-05-05T02:12:51.579Z,0.82
2023-05-05T02:15:20.313Z,0.80
2023-05-05T02:17:47.388Z,0.55
2023-05-05T02:20:14.987Z,0.82
2023-05-05T02:22:42.176Z,0.82
2023-05-05T02:25:09.825Z,0.57
2023-05-05T02:27:36.808Z,0.68
2023-05-05T02:30:07.442Z,0.82
2023-05-05T02:32:38.228Z,0.75
2023-05-05T02:35:27.668Z,0.60
2023-05-05T02:38:00.160Z,0.60
2023-05-05T02:40:27.113Z,0.63
2023-05-05T02:42:54.698Z,0.85
2023-05-05T02:45:22.581Z,1.30
2023-05-05T02:47:49.498Z,1.25
2023-05-05T02:50:18.813Z,0.93
2023-05-05T02:52:45.931Z,1.35
2023-05-05T02:55:12.958Z,0.68
2023-05-05T02:58:06.840Z,0.90
2023-05-05T03:00:49.034Z,0.70
2023-05-05T03:03:25.039Z,0.90
2023-05-05T03:06:02.970Z,1.02
2023-05-05T03:08:56.376Z,0.77
2023-05-05T03:11:41.008Z,1.10
2023-05-05T03:14:09.657Z,1.33
2023-05-05T03:16:37.277Z,1.08
2023-05-05T03:19:04.598Z,1.33
2023-05-05T03:21:32.829Z,1.05
2023-05-05T03:23:59.824Z,1.35
2023-05-05T03:26:29.268Z,1.25
2023-05-05T03:28:56.520Z,0.98
2023-05-05T03:31:26.431Z,1.80
2023-05-05T03:33:56.865Z,1.45
2023-05-05T03:36:24.026Z,1.63
2023-05-05T03:38:51.049Z,1.50
2023-05-05T03:41:17.994Z,1.30
2023-05-05T03:43:45.199Z,1.63
2023-05-05T03:46:12.497Z,2.30
2023-05-05T03:48:39.921Z,1.52
2023-05-05T03:51:07.076Z,2.17
2023-05-05T03:53:34.271Z,1.75
2023-05-05T03:56:01.484Z,2.60
2023-05-05T03:58:28.476Z,2.30
2023-05-05T04:00:55.457Z,1.88
2023-05-05T04:03:22.707Z,2.20
2023-05-05T04:05:50.085Z,1.75
2023-05-05T04:08:17.136Z,2.22
2023-05-05T04:10:47.279Z,1.63
2023-05-05T04:13:14.402Z,2.40
2023-05-05T04:15:46.185Z,1.52
2023-05-05T04:18:13.320Z,1.73
2023-05-05T04:20:40.494Z,1.58
2023-05-05T04:23:10.521Z,2.33
2023-05-05T04:25:37.447Z,1.90
2023-05-05T04:28:04.612Z,2.90
2023-05-05T04:30:31.810Z,1.83
2023-05-05T04:32:58.857Z,2.53
2023-05-05T04:35:26.126Z,2.03
2023-05-05T04:37:54.637Z,1.80
2023-05-05T04:40:21.617Z,1.98
2023-05-05T04:42:48.657Z,1.73
2023-05-05T04:45:15.847Z,1.73
2023-05-05T04:47:43.001Z,1.85
2023-05-05T04:50:11.450Z,1.88
2023-05-05T04:52:38.441Z,2.08
2023-05-05T04:55:05.976Z,2.08
2023-05-05T04:57:35.885Z,2.67
2023-05-05T05:00:04.980Z,1.90
2023-05-05T05:02:32.179Z,1.88
2023-05-05T05:04:59.293Z,1.73
2023-05-05T05:07:26.571Z,1.85
2023-05-05T05:09:53.564Z,1.70
2023-05-05T05:12:23.553Z,2.22
2023-05-05T05:14:50.681Z,1.95
2023-05-05T05:17:22.759Z,3.33
2023-05-05T05:19:49.795Z,1.90
2023-05-05T05:22:16.932Z,1.60
2023-05-05T05:37:12.538Z,1.20
2023-05-05T05:52:15.487Z,1.98
2023-05-05T05:54:42.085Z,2.17
2023-05-05T05:57:09.099Z,1.77
2023-05-05T05:59:39.279Z,1.50
2023-05-05T06:02:09.841Z,1.48
2023-05-05T06:04:36.899Z,2.00
2023-05-05T06:07:03.956Z,1.83
2023-05-05T06:09:31.087Z,2.22
2023-05-05T06:11:58.132Z,2.67
2023-05-05T06:14:25.278Z,1.70
2023-05-05T06:16:52.901Z,1.98
2023-05-05T06:19:20.693Z,2.70
2023-05-05T06:21:48.132Z,1.67
2023-05-05T06:24:15.077Z,2.03
2023-05-05T06:26:42.417Z,2.22
2023-05-05T06:29:11.764Z,2.00
2023-05-05T06:31:39.328Z,2.10
2023-05-05T06:34:06.427Z,2.17
2023-05-05T06:36:36.172Z,1.95
2023-05-05T06:39:03.121Z,2.10
2023-05-05T06:41:30.390Z,1.98
2023-05-05T06:43:57.360Z,1.70
2023-05-05T06:46:24.550Z,1.45
2023-05-05T06:48:51.919Z,1.50
2023-05-05T06:51:21.207Z,1.77
2023-05-05T06:53:48.341Z,2.10
2023-05-05T06:56:15.691Z,1.13
2023-05-05T06:58:42.747Z,1.42
2023-05-05T07:01:09.888Z,1.35
2023-05-05T07:03:36.971Z,1.40
2023-05-05T07:06:04.170Z,2.63
2023-05-05T07:08:31.148Z,1.45
2023-05-05T07:10:58.489Z,1.30
2023-05-05T07:13:25.445Z,1.48
2023-05-05T07:15:52.542Z,1.52
2023-05-05T07:18:22.036Z,1.40
2023-05-05T07:20:49.350Z,1.35
2023-05-05T07:23:16.311Z,1.15
2023-05-05T07:25:44.106Z,1.35
2023-05-05T07:28:11.374Z,0.90
2023-05-05T07:30:38.503Z,1.38
2023-05-05T07:33:05.737Z,0.88
2023-05-05T07:35:32.776Z,1.30
2023-05-05T07:38:00.005Z,1.45
2023-05-05T07:40:27.037Z,1.05
2023-05-05T07:42:54.004Z,0.80
2023-05-05T07:45:24.156Z,1.40
2023-05-05T07:47:51.354Z,0.88
2023-05-05T07:50:18.608Z,1.10
2023-05-05T07:52:49.946Z,0.93
2023-05-05T07:55:20.971Z,0.98
2023-05-05T07:57:49.912Z,0.85
2023-05-05T08:00:21.581Z,0.70
2023-05-05T08:02:48.989Z,1.10
2023-05-05T08:05:19.238Z,1.27
2023-05-05T08:07:46.328Z,1.08
2023-05-05T08:10:15.837Z,1.13
2023-05-05T08:12:47.058Z,0.75
2023-05-05T08:15:14.615Z,0.90
2023-05-05T08:17:46.877Z,0.90
2023-05-05T08:20:14.245Z,0.68
2023-05-05T08:22:41.966Z,0.40
2023-05-05T08:25:11.166Z,0.63
2023-05-05T08:27:39.140Z,0.47
2023-05-05T08:30:06.730Z,1.05
2023-05-05T08:32:35.685Z,0.55
2023-05-05T08:35:05.946Z,0.52
2023-05-05T08:37:33.501Z,0.63
2023-05-05T08:40:00.614Z,0.75
2023-05-05T08:42:36.923Z,0.70
2023-05-05T08:45:11.052Z,0.65
2023-05-05T08:47:38.909Z,0.85
2023-05-05T08:50:06.526Z,0.77
2023-05-05T08:52:44.551Z,0.55
2023-05-05T08:55:24.299Z,0.73
2023-05-05T08:57:52.602Z,0.77
2023-05-05T09:00:22.243Z,0.52
2023-05-05T09:02:49.484Z,0.82
2023-05-05T09:05:18.083Z,0.73
2023-05-05T09:07:53.772Z,0.63
2023-05-05T09:10:24.804Z,0.52
2023-05-05T09:12:52.151Z,1.05
2023-05-05T09:15:27.475Z,0.82
2023-05-05T09:17:59.322Z,0.98
2023-05-05T09:20:46.984Z,1.30
2023-05-05T09:23:21.122Z,1.25
2023-05-05T09:26:09.160Z,0.52
2023-05-05T09:28:36.402Z,0.50
2023-05-05T09:31:16.442Z,0.50
2023-05-05T09:33:44.176Z,0.63
2023-05-05T09:36:12.404Z,0.63
2023-05-05T09:38:39.650Z,0.70
2023-05-05T09:41:07.822Z,0.95
2023-05-05T09:43:58.173Z,0.65
2023-05-05T09:47:09.526Z,0.65
2023-05-05T09:49:42.179Z,0.65
2023-05-05T09:52:15.968Z,0.75
2023-05-05T09:54:43.850Z,0.70
2023-05-05T09:57:39.570Z,0.85
2023-05-05T10:00:08.911Z,0.77
2023-05-05T10:02:38.184Z,0.75
2023-05-05T10:05:16.241Z,0.70
2023-05-05T10:07:48.969Z,1.08
2023-05-05T10:10:17.307Z,0.67
2023-05-05T10:12:46.488Z,0.75
2023-05-05T10:15:14.362Z,1.02
2023-05-05T10:18:06.026Z,1.40
2023-05-05T10:20:34.735Z,0.60
2023-05-05T10:23:04.217Z,0.57
2023-05-05T10:25:39.748Z,1.42
2023-05-05T10:28:12.215Z,0.80
2023-05-05T10:30:52.614Z,0.95
2023-05-05T10:35:53.997Z,0.50
2023-05-05T10:38:41.874Z,0.75
2023-05-05T10:41:40.338Z,0.73
2023-05-05T10:44:13.978Z,0.88
2023-05-05T10:50:11.595Z,1.05
2023-05-05T10:52:58.660Z,0.93
2023-05-05T10:55:44.867Z,1.20
2023-05-05T10:58:50.935Z,1.13
2023-05-05T11:01:33.572Z,0.60
2023-05-05T11:04:24.185Z,0.85
2023-05-05T11:07:12.658Z,0.60
2023-05-05T11:09:58.042Z,0.60
2023-05-05T11:12:25.228Z,0.80
2023-05-05T11:15:26.285Z,0.60
2023-05-05T11:18:05.834Z,0.70
2023-05-05T11:20:39.962Z,0.45
2023-05-05T11:23:06.984Z,0.70
2023-05-05T11:25:37.543Z,0.57
2023-05-05T11:28:11.681Z,1.05
2023-05-05T11:33:31.741Z,0.50
2023-05-05T11:38:57.327Z,0.70
2023-05-05T11:41:33.163Z,0.60
2023-05-05T11:44:16.958Z,0.70
2023-05-05T11:49:38.884Z,0.52
2023-05-05T11:52:09.501Z,0.70
2023-05-05T11:54:38.274Z,0.57
2023-05-05T11:57:09.809Z,0.52
2023-05-05T11:59:49.823Z,0.45
2023-05-05T12:02:19.996Z,0.63
2023-05-05T12:04:47.424Z,0.43
2023-05-05T12:07:21.898Z,0.40
2023-05-05T12:09:49.359Z,0.50
2023-05-05T12:12:16.597Z,0.45
2023-05-05T12:14:53.071Z,0.65
2023-05-05T12:17:23.649Z,0.70
2023-05-05T12:19:54.442Z,0.60
2023-05-05T12:22:25.247Z,0.45
2023-05-05T12:25:02.837Z,0.55
2023-05-05T12:27:29.910Z,0.50
2023-05-05T12:29:57.604Z,0.52
2023-05-05T12:32:30.767Z,1.08
2023-05-05T12:34:57.804Z,0.40
2023-05-05T12:37:25.879Z,0.70
2023-05-05T12:39:55.177Z,0.60
2023-05-05T12:42:22.606Z,0.47
2023-05-05T12:44:49.758Z,0.40
2023-05-05T12:47:30.559Z,0.93
2023-05-05T12:49:57.769Z,0.90
2023-05-05T12:52:24.776Z,0.60
2023-05-05T12:55:00.833Z,0.40
2023-05-05T12:57:27.877Z,0.50
2023-05-05T12:59:54.871Z,0.50
2023-05-05T13:02:22.091Z,0.77
2023-05-05T13:04:53.653Z,0.68
2023-05-05T13:07:21.571Z,0.43
2023-05-05T13:09:49.962Z,0.50
2023-05-05T13:12:21.103Z,0.35
2023-05-05T13:14:49.150Z,0.98
2023-05-05T13:17:16.212Z,0.75
2023-05-05T13:19:46.465Z,1.05
2023-05-05T13:22:14.003Z,1.17
2023-05-05T13:24:51.826Z,1.10
2023-05-05T13:27:25.911Z,0.60
2023-05-05T13:29:55.543Z,0.93
2023-05-05T13:32:24.642Z,0.65
2023-05-05T13:34:52.249Z,0.70
2023-05-05T13:37:27.050Z,0.45
2023-05-05T13:40:01.663Z,1.17
2023-05-05T13:42:28.930Z,0.68
2023-05-05T13:44:55.914Z,0.93
2023-05-05T13:50:35.672Z,0.50
2023-05-05T13:53:05.443Z,0.60
2023-05-05T13:55:32.635Z,0.65
2023-05-05T13:58:05.033Z,0.75
2023-05-05T14:00:55.091Z,0.93
2023-05-05T14:07:24.996Z,0.60
2023-05-05T14:09:56.818Z,0.80
2023-05-05T14:12:24.414Z,0.70
2023-05-05T14:20:03.919Z,1.10
2023-05-05T14:24:41.987Z,0.60
2023-05-05T14:27:09.307Z,0.30
2023-05-05T14:29:36.669Z,0.73
2023-05-05T14:32:04.662Z,0.73
2023-05-05T14:34:50.449Z,0.68
2023-05-05T14:37:23.891Z,0.57
2023-05-05T14:39:50.965Z,0.40
2023-05-05T14:42:18.324Z,1.15
2023-05-05T14:44:45.480Z,0.73
2023-05-05T14:47:12.741Z,0.80
2023-05-05T14:49:39.691Z,0.63
2023-05-05T14:52:06.766Z,0.60
2023-05-05T14:54:34.123Z,0.50
2023-05-05T14:57:01.114Z,0.80
2023-05-05T14:59:29.348Z,0.70
2023-05-05T15:01:57.648Z,0.82
2023-05-05T15:04:27.769Z,0.50
2023-05-05T15:06:54.889Z,0.68
2023-05-05T15:09:22.320Z,0.50
2023-05-05T15:11:50.817Z,1.10
2023-05-05T15:14:18.136Z,0.90
2023-05-05T15:16:47.012Z,1.23
2023-05-05T15:19:16.510Z,0.60
2023-05-05T15:21:43.643Z,1.05
2023-05-05T15:24:10.713Z,0.73
2023-05-05T15:26:37.768Z,1.42
2023-05-05T15:29:04.759Z,0.70
2023-05-05T15:31:31.664Z,0.50
2023-05-05T15:33:58.785Z,0.50
2023-05-05T15:36:25.747Z,0.70
2023-05-05T15:38:52.699Z,1.02
2023-05-05T15:41:19.630Z,0.82
2023-05-05T15:43:46.575Z,0.70
2023-05-05T15:46:13.666Z,0.88
2023-05-05T15:48:40.708Z,0.60
2023-05-05T15:51:07.819Z,0.77
2023-05-05T15:53:34.807Z,0.68
2023-05-05T15:56:01.910Z,0.65
2023-05-05T15:58:29.004Z,0.52
2023-05-05T16:00:55.959Z,0.82
2023-05-05T16:03:22.992Z,1.17
2023-05-05T16:05:50.167Z,1.38
2023-05-05T16:08:17.084Z,0.80
2023-05-05T16:10:44.177Z,0.65
2023-05-05T16:13:11.348Z,0.80
2023-05-05T16:15:38.287Z,0.82
2023-05-05T16:18:05.300Z,0.93
2023-05-05T16:20:32.368Z,0.93
2023-05-05T16:22:59.334Z,0.95
2023-05-05T16:25:26.252Z,0.77
2023-05-05T16:27:56.659Z,1.02
2023-05-05T16:30:26.898Z,1.00
2023-05-05T16:33:14.210Z,0.98
2023-05-05T16:35:43.646Z,1.20
2023-05-05T16:38:10.847Z,0.70
2023-05-05T16:40:38.131Z,0.88
2023-05-05T16:43:05.084Z,0.77
2023-05-05T16:45:32.159Z,0.70
2023-05-05T16:47:59.445Z,0.80
2023-05-05T16:50:30.861Z,1.25
2023-05-05T16:52:58.000Z,0.60
2023-05-05T16:55:28.040Z,1.15
2023-05-05T16:57:55.783Z,1.02
2023-05-05T17:00:35.114Z,0.75
2023-05-05T17:03:05.151Z,1.48
2023-05-05T17:05:32.401Z,0.93
2023-05-05T17:07:59.406Z,0.77
2023-05-05T17:10:27.331Z,0.98
2023-05-05T17:12:54.498Z,1.42
2023-05-05T17:15:22.331Z,0.90
2023-05-05T17:17:49.360Z,1.10
2023-05-05T17:20:24.236Z,0.90
2023-05-05T17:22:51.346Z,0.50
2023-05-05T17:25:18.918Z,1.17
2023-05-05T17:27:46.073Z,1.00
2023-05-05T17:30:13.646Z,0.85
2023-05-05T17:32:41.215Z,1.98
2023-05-05T17:35:08.657Z,1.63
2023-05-05T17:37:44.960Z,0.52
2023-05-05T17:40:20.724Z,0.75
2023-05-05T17:45:34.116Z,1.40
2023-05-05T17:48:14.527Z,0.80
2023-05-05T17:50:43.424Z,1.00
2023-05-05T17:53:10.929Z,0.98
2023-05-05T17:55:38.947Z,1.00
2023-05-05T17:58:06.112Z,0.93
2023-05-05T18:00:33.144Z,1.02
2023-05-05T18:03:01.339Z,1.02
2023-05-05T18:05:28.410Z,0.80
2023-05-05T18:08:03.157Z,0.95
2023-05-05T18:10:32.394Z,1.30
2023-05-05T18:13:11.247Z,1.13
2023-05-05T18:15:43.370Z,1.30
2023-05-05T18:18:12.234Z,1.10
2023-05-05T18:20:39.392Z,1.08
2023-05-05T18:23:06.605Z,1.27
2023-05-05T18:25:33.738Z,1.50
2023-05-05T18:28:00.968Z,1.48
2023-05-05T18:30:30.957Z,1.65
2023-05-05T18:32:57.972Z,1.13
2023-05-05T18:35:25.028Z,1.23
2023-05-05T18:37:54.689Z,1.20
2023-05-05T18:40:24.472Z,1.10
2023-05-05T18:43:08.962Z,1.35
2023-05-05T18:46:06.246Z,1.35
2023-05-05T18:48:33.609Z,1.35
2023-05-05T18:51:04.227Z,1.23
2023-05-05T18:53:32.081Z,1.33
2023-05-05T18:55:59.475Z,1.05
2023-05-05T18:58:28.724Z,1.50
2023-05-05T19:00:56.589Z,1.33
2023-05-05T19:03:26.936Z,1.33
2023-05-05T19:05:58.715Z,1.60
2023-05-05T19:08:26.022Z,1.42
2023-05-05T19:10:56.255Z,1.17
2023-05-05T19:13:23.572Z,1.52
2023-05-05T19:15:51.729Z,1.08
2023-05-05T19:18:23.808Z,1.42
2023-05-05T19:20:51.380Z,1.50
2023-05-05T19:23:18.535Z,1.60
2023-05-05T19:25:56.021Z,1.80
2023-05-05T19:28:23.154Z,1.00
2023-05-05T19:36:39.538Z,1.10
2023-05-05T19:42:49.240Z,1.25
2023-05-05T19:45:16.540Z,1.20
2023-05-05T19:47:44.233Z,1.52
2023-05-05T19:50:11.790Z,1.45
2023-05-05T19:52:41.726Z,1.00
2023-05-05T19:55:13.333Z,1.20
2023-05-05T19:57:40.912Z,1.58
2023-05-05T20:00:12.023Z,1.75
2023-05-05T20:02:39.274Z,1.00
2023-05-05T20:05:06.961Z,1.40
2023-05-05T20:07:34.078Z,1.30
2023-05-05T20:10:01.340Z,2.85
2023-05-05T20:12:36.743Z,1.23
2023-05-05T20:15:06.284Z,2.35
2023-05-05T20:17:33.284Z,1.05
2023-05-05T20:20:00.349Z,2.28
2023-05-05T20:22:27.337Z,1.70
2023-05-05T20:24:54.401Z,1.23
2023-05-05T20:27:21.643Z,2.58
2023-05-05T20:29:48.579Z,1.90
2023-05-05T20:32:16.239Z,1.63
2023-05-05T20:34:43.216Z,1.70
2023-05-05T20:37:24.605Z,1.75
2023-05-05T20:39:52.160Z,2.55
2023-05-05T20:42:19.587Z,1.55
2023-05-05T20:44:46.554Z,1.05
2023-05-05T20:47:13.655Z,1.40
2023-05-05T20:49:40.754Z,1.77
2023-05-05T20:52:07.771Z,1.55
2023-05-05T20:54:39.187Z,1.45
2023-05-05T20:57:07.418Z,1.20
2023-05-05T20:59:34.581Z,1.60
2023-05-05T21:02:01.684Z,1.70
2023-05-05T21:04:28.811Z,1.70
2023-05-05T21:06:56.023Z,1.40
2023-05-05T21:09:23.790Z,1.98
2023-05-05T21:12:11.413Z,2.47
2023-05-05T21:14:46.581Z,1.23
2023-05-05T21:17:14.742Z,1.35
2023-05-05T21:20:04.337Z,1.27
2023-05-05T21:26:29.138Z,2.05
2023-05-05T21:28:59.927Z,1.73
2023-05-05T21:31:26.980Z,1.40
2023-05-05T21:33:54.339Z,1.45
2023-05-05T21:36:21.413Z,1.30
2023-05-05T21:38:50.581Z,1.50
2023-05-05T21:41:17.536Z,1.85
2023-05-05T21:43:48.749Z,1.48
2023-05-05T21:46:50.557Z,1.65
2023-05-05T21:50:06.580Z,0.85
2023-05-05T21:52:31.868Z,1.35
2023-05-05T21:54:58.924Z,1.00
2023-05-05T21:57:26.191Z,1.30
2023-05-05T21:59:53.402Z,1.75
2023-05-05T22:02:23.596Z,1.55
2023-05-05T22:04:53.786Z,1.88
2023-05-05T22:07:26.042Z,1.60
2023-05-05T22:09:55.958Z,1.80
2023-05-05T22:12:23.250Z,1.50
2023-05-05T22:14:50.324Z,1.23
2023-05-05T22:17:17.318Z,1.30
2023-05-05T22:19:44.329Z,1.30
2023-05-05T22:22:11.486Z,1.95
2023-05-05T22:24:38.616Z,1.35
2023-05-05T22:27:06.252Z,1.55
2023-05-05T22:29:33.572Z,1.70
2023-05-05T22:32:00.612Z,1.52
2023-05-05T22:34:27.731Z,1.50
2023-05-05T22:36:54.901Z,1.67
2023-05-05T22:39:22.929Z,1.67
2023-05-05T22:41:49.975Z,2.42
2023-05-05T22:44:17.238Z,1.38
2023-05-05T22:46:44.372Z,1.48
2023-05-05T22:49:11.394Z,1.83
2023-05-05T22:51:39.343Z,1.63
2023-05-05T22:54:06.374Z,1.75
2023-05-05T22:56:35.711Z,1.20
2023-05-05T22:59:02.912Z,1.55
2023-05-05T23:01:30.074Z,1.63
2023-05-05T23:03:57.162Z,1.70
2023-05-05T23:06:24.382Z,1.10
2023-05-05T23:08:51.318Z,1.23
2023-05-05T23:11:18.616Z,1.15
2023-05-05T23:13:45.737Z,1.77
2023-05-05T23:16:12.774Z,1.30
2023-05-05T23:18:42.852Z,1.38
2023-05-05T23:21:10.655Z,1.42
2023-05-05T23:23:37.697Z,1.40
2023-05-05T23:26:04.723Z,1.13
2023-05-05T23:32:04.404Z,1.55
2023-05-05T23:34:31.521Z,1.25
2023-05-05T23:36:58.573Z,1.33
2023-05-05T23:39:25.798Z,1.10
2023-05-05T23:41:52.808Z,1.42
2023-05-05T23:44:20.139Z,1.33
2023-05-05T23:46:47.154Z,1.63
2023-05-05T23:49:14.136Z,1.38
2023-05-05T23:51:41.228Z,1.35
2023-05-05T23:54:08.217Z,1.33
2023-05-05T23:56:35.264Z,1.38
2023-05-05T23:59:02.295Z,2.00
